Time;durP1;ratioP1;P1;durP2;ratioP2;P2;SDS_P1;SDS_P2;PMS_P1;PMS_P2;Temp;Humidity;BMP_temperature;BMP_pressure;BME280_temperature;BME280_humidity;BME280_pressure;Samples;Min_cycle;Max_cycle;Signal;HPM_P1;HPM_P2
2023/09/01 00:01:36;;;;;;;7.00;5.30;;;;;;;27.69;38.14;100427.88;104058;1288;69144;-86
2023/09/01 00:04:03;;;;;;;9.70;5.40;;;;;;;27.68;38.16;100425.02;103903;1288;69245;-86
2023/09/01 00:06:28;;;;;;;6.20;5.20;;;;;;;27.69;38.16;100427.44;103960;1288;69247;-85
2023/09/01 00:08:54;;;;;;;7.10;4.90;;;;;;;27.68;38.25;100426.95;103882;1291;69202;-85
2023/09/01 00:11:20;;;;;;;8.70;5.30;;;;;;;27.67;38.34;100427.59;103929;1292;69144;-85
2023/09/01 00:13:45;;;;;;;8.10;5.00;;;;;;;27.67;38.28;100429.44;103994;1288;69187;-85
2023/09/01 00:16:12;;;;;;;8.00;4.60;;;;;;;27.67;38.19;100427.23;103978;1288;69320;-91
2023/09/01 00:18:38;;;;;;;7.00;4.90;;;;;;;27.67;38.34;100430.50;103894;1288;69197;-85
2023/09/01 00:21:06;;;;;;;8.40;4.80;;;;;;;27.66;38.36;100431.17;104558;1288;69263;-85
2023/09/01 00:23:32;;;;;;;8.60;5.00;;;;;;;27.66;38.39;100432.89;105149;1288;69118;-86
2023/09/01 00:25:59;;;;;;;7.50;5.00;;;;;;;27.66;38.39;100435.01;104686;1288;69265;-85
2023/09/01 00:28:25;;;;;;;6.40;4.60;;;;;;;27.66;38.41;100437.13;104082;1288;69177;-85
2023/09/01 00:30:51;;;;;;;6.00;5.00;;;;;;;27.66;38.34;100434.48;103669;1288;69392;-85
2023/09/01 00:33:17;;;;;;;6.70;5.00;;;;;;;27.66;38.47;100436.56;103911;1289;69276;-85
2023/09/01 00:35:42;;;;;;;8.30;5.20;;;;;;;27.66;38.55;100436.94;103954;1288;69286;-85
2023/09/01 00:38:07;;;;;;;7.60;5.20;;;;;;;27.66;38.49;100435.65;104093;1288;69858;-85
2023/09/01 00:40:33;;;;;;;7.80;5.20;;;;;;;27.66;38.53;100441.64;103825;1290;69247;-85
2023/09/01 00:42:59;;;;;;;8.60;5.30;;;;;;;27.66;38.51;100442.62;103865;1291;69256;-91
2023/09/01 00:45:24;;;;;;;8.50;5.10;;;;;;;27.65;38.62;100442.58;103892;1288;69362;-85
2023/09/01 00:47:50;;;;;;;6.70;5.00;;;;;;;27.65;38.54;100442.42;103744;1288;69194;-85
2023/09/01 00:50:15;;;;;;;8.10;5.10;;;;;;;27.64;38.64;100441.77;103907;1288;69287;-85
2023/09/01 00:52:41;;;;;;;8.60;5.20;;;;;;;27.64;38.67;100442.19;103954;1289;69369;-85
2023/09/01 00:55:06;;;;;;;6.80;5.20;;;;;;;27.64;38.65;100442.62;103925;1288;69257;-86
2023/09/01 00:57:32;;;;;;;12.70;5.90;;;;;;;27.64;38.76;100444.02;103845;1288;69204;-85
2023/09/01 00:59:57;;;;;;;10.40;5.00;;;;;;;27.64;38.69;100447.95;103994;1288;69185;-85
2023/09/01 01:02:23;;;;;;;7.20;5.10;;;;;;;27.63;38.75;100450.71;103996;1288;69243;-85
2023/09/01 01:04:48;;;;;;;8.60;5.40;;;;;;;27.63;38.80;100454.42;104567;1288;68299;-86
2023/09/01 01:07:36;;;;;;;7.60;5.20;;;;;;;27.63;38.78;100455.83;105009;1288;69183;-86
2023/09/01 01:10:26;;;;;;;8.40;5.20;;;;;;;27.62;38.75;100456.63;104400;1289;73636;-87
2023/09/01 01:13:18;;;;;;;9.70;5.10;;;;;;;27.61;38.96;100457.67;103739;1288;69175;-90
2023/09/01 01:15:44;;;;;;;6.90;5.30;;;;;;;27.61;38.89;100458.48;104301;1288;69265;-85
2023/09/01 01:18:11;;;;;;;6.80;5.30;;;;;;;27.61;38.88;100460.83;104308;1291;69303;-85
2023/09/01 01:20:43;;;;;;;9.10;5.40;;;;;;;27.62;38.86;100466.67;104936;1291;66902;-85
2023/09/01 01:23:14;;;;;;;8.20;5.50;;;;;;;27.61;39.05;100465.79;103940;1288;73629;-85
2023/09/01 01:25:47;;;;;;;8.20;5.30;;;;;;;27.61;38.98;100467.87;103939;1288;69152;-85
2023/09/01 01:28:12;;;;;;;8.80;5.60;;;;;;;27.60;39.08;100468.13;103995;1288;69094;-85
2023/09/01 01:30:38;;;;;;;8.90;5.00;;;;;;;27.61;39.07;100470.49;103856;1292;69279;-85
2023/09/01 01:33:04;;;;;;;8.90;5.80;;;;;;;27.60;39.06;100467.83;103612;1288;69396;-85
2023/09/01 01:35:43;;;;;;;7.50;5.40;;;;;;;27.60;39.04;100465.92;103837;1289;69372;-85
2023/09/01 01:38:20;;;;;;;7.80;5.30;;;;;;;27.58;39.14;100474.48;103884;1288;69550;-85
2023/09/01 01:40:48;;;;;;;9.90;5.40;;;;;;;27.58;39.04;100478.16;103942;1288;69230;-85
2023/09/01 01:43:13;;;;;;;9.40;5.10;;;;;;;27.58;39.06;100482.67;103930;1288;69298;-85
2023/09/01 01:45:41;;;;;;;13.20;5.60;;;;;;;27.58;39.05;100485.98;103822;1288;69286;-85
2023/09/01 01:48:07;;;;;;;7.80;5.20;;;;;;;27.57;39.14;100486.16;103967;1288;73352;-85
2023/09/01 01:50:32;;;;;;;10.10;6.20;;;;;;;27.57;39.12;100484.30;103868;1292;69276;-84
2023/09/01 01:52:59;;;;;;;9.10;5.30;;;;;;;27.56;39.07;100480.80;103903;1288;69183;-85
2023/09/01 01:55:24;;;;;;;8.60;5.50;;;;;;;27.56;39.06;100482.59;103927;1288;69238;-85
2023/09/01 01:57:50;;;;;;;7.30;5.30;;;;;;;27.56;39.12;100483.31;103949;1288;69287;-85
2023/09/01 02:00:15;;;;;;;8.10;5.30;;;;;;;27.55;39.16;100480.44;103959;1291;69262;-85
2023/09/01 02:02:42;;;;;;;7.50;5.10;;;;;;;27.55;39.15;100481.80;103852;1289;69342;-85
2023/09/01 02:05:08;;;;;;;8.40;5.10;;;;;;;27.55;39.18;100480.08;103906;1293;69258;-85
2023/09/01 02:07:34;;;;;;;8.30;5.20;;;;;;;27.55;39.14;100482.92;103937;1291;69325;-85
2023/09/01 02:09:59;;;;;;;10.80;5.60;;;;;;;27.54;39.12;100484.02;104001;1289;69275;-85
2023/09/01 02:12:25;;;;;;;8.70;5.10;;;;;;;27.53;39.07;100487.27;103779;1288;69406;-85
2023/09/01 02:14:50;;;;;;;7.60;5.30;;;;;;;27.53;39.19;100485.59;103886;1288;70487;-85
2023/09/01 02:17:16;;;;;;;7.70;5.30;;;;;;;27.53;39.24;100484.58;103955;1288;69104;-85
2023/09/01 02:19:41;;;;;;;8.30;5.40;;;;;;;27.53;39.27;100493.36;103902;1288;69281;-85
2023/09/01 02:22:07;;;;;;;7.60;5.10;;;;;;;27.52;39.29;100490.94;103710;1293;69273;-85
2023/09/01 02:24:33;;;;;;;6.60;4.90;;;;;;;27.53;39.18;100496.79;103754;1288;69296;-89
2023/09/01 02:26:58;;;;;;;8.10;5.20;;;;;;;27.52;39.30;100501.82;103947;1288;69266;-84
2023/09/01 02:29:24;;;;;;;7.90;5.10;;;;;;;27.52;39.41;100502.52;103875;1291;74532;-85
2023/09/01 02:31:50;;;;;;;6.60;5.30;;;;;;;27.52;39.42;100503.36;103941;1291;69276;-85
2023/09/01 02:34:15;;;;;;;8.70;5.10;;;;;;;27.51;39.31;100503.17;103967;1288;69311;-85
2023/09/01 02:36:41;;;;;;;9.30;5.40;;;;;;;27.51;39.37;100505.14;103792;1288;69318;-87
2023/09/01 02:39:09;;;;;;;7.10;5.20;;;;;;;27.51;39.42;100506.39;104014;1289;69094;-86
2023/09/01 02:41:35;;;;;;;9.90;5.70;;;;;;;27.50;39.42;100509.04;103889;1289;69189;-85
2023/09/01 02:44:00;;;;;;;9.00;5.40;;;;;;;27.50;39.35;100509.00;103888;1288;69228;-85
2023/09/01 02:46:26;;;;;;;7.50;5.20;;;;;;;27.50;39.50;100510.70;103872;1288;69264;-85
2023/09/01 02:48:51;;;;;;;7.60;5.60;;;;;;;27.49;39.47;100513.92;103879;1287;69169;-85
2023/09/01 02:51:17;;;;;;;9.00;5.50;;;;;;;27.49;39.48;100516.19;103934;1288;69299;-85
2023/09/01 02:53:42;;;;;;;7.70;5.40;;;;;;;27.49;39.50;100521.69;103840;1290;69354;-85
2023/09/01 02:56:08;;;;;;;8.80;5.40;;;;;;;27.49;39.46;100524.11;104016;1288;69266;-85
2023/09/01 02:58:33;;;;;;;9.50;5.50;;;;;;;27.47;39.51;100527.66;104088;1288;70374;-87
2023/09/01 03:01:07;;;;;;;9.90;5.80;;;;;;;27.45;39.62;100532.56;103976;1290;69295;-85
2023/09/01 03:03:41;;;;;;;7.60;5.10;;;;;;;27.39;39.67;100531.06;104159;1288;69285;-91
2023/09/01 03:06:08;;;;;;;8.70;5.60;;;;;;;27.30;39.75;100531.12;104050;1289;69199;-85
2023/09/01 03:08:34;;;;;;;5.40;4.30;;;;;;;27.22;39.81;100532.63;104064;1289;69438;-86
2023/09/01 03:11:00;;;;;;;5.70;3.90;;;;;;;27.16;39.82;100530.81;104171;1291;69205;-85
2023/09/01 03:13:26;;;;;;;13.80;4.80;;;;;;;27.15;39.96;100525.46;103984;1288;69271;-86
2023/09/01 03:15:55;;;;;;;15.90;5.60;;;;;;;27.14;40.06;100525.08;103946;1288;69291;-85
2023/09/01 03:20:55;;;;;;;14.70;5.50;;;;;;;27.09;40.15;100531.88;104553;1284;69189;-85
2023/09/01 03:23:21;;;;;;;19.40;6.00;;;;;;;27.06;40.30;100535.41;104350;1288;67256;-86
2023/09/01 03:25:56;;;;;;;14.50;6.10;;;;;;;27.01;40.36;100535.81;104745;1286;69111;-86
2023/09/01 03:28:21;;;;;;;13.40;6.60;;;;;;;26.97;40.50;100534.16;104779;1288;69220;-86
2023/09/01 03:30:47;;;;;;;13.10;7.40;;;;;;;26.94;40.72;100539.31;104421;1286;69192;-86
2023/09/01 03:33:12;;;;;;;16.10;7.90;;;;;;;26.89;41.18;100536.58;104323;1285;69148;-86
2023/09/01 03:35:38;;;;;;;12.00;8.20;;;;;;;26.84;41.42;100538.23;104120;1288;69287;-85
2023/09/01 03:38:03;;;;;;;12.90;7.60;;;;;;;26.80;41.69;100539.92;104216;1291;69422;-85
2023/09/01 03:40:29;;;;;;;13.70;7.40;;;;;;;26.76;41.94;100540.05;104034;1286;287124;-85
2023/09/01 03:42:54;;;;;;;10.80;6.70;;;;;;;26.73;42.05;100543.68;104462;1287;69189;-86
2023/09/01 03:45:28;;;;;;;11.10;6.80;;;;;;;26.67;42.20;100541.75;104084;1289;69242;-91
2023/09/01 03:47:53;;;;;;;12.20;6.40;;;;;;;26.63;42.31;100544.27;104079;1290;73759;-85
2023/09/01 03:50:19;;;;;;;10.90;6.10;;;;;;;26.58;42.47;100543.36;104140;1286;69247;-86
2023/09/01 03:52:44;;;;;;;11.20;6.10;;;;;;;26.53;42.17;100548.20;104131;1286;69241;-85
2023/09/01 03:55:10;;;;;;;11.60;6.60;;;;;;;26.45;42.22;100547.82;104233;1286;69280;-85
2023/09/01 03:57:35;;;;;;;10.30;6.00;;;;;;;26.37;42.03;100546.16;104372;1289;67819;-86
2023/09/01 04:00:05;;;;;;;11.10;5.90;;;;;;;26.30;42.15;100545.51;104634;1289;69253;-85
2023/09/01 04:02:31;;;;;;;10.40;5.50;;;;;;;26.22;42.06;100546.17;104202;1286;69098;-85
2023/09/01 04:04:57;;;;;;;10.00;5.80;;;;;;;26.15;42.17;100549.88;104216;1289;69250;-85
2023/09/01 04:07:22;;;;;;;11.30;6.20;;;;;;;26.08;42.36;100548.39;104098;1289;70307;-85
2023/09/01 04:09:48;;;;;;;9.10;5.90;;;;;;;26.04;42.37;100549.14;104249;1285;70606;-86
2023/09/01 04:12:29;;;;;;;9.70;6.40;;;;;;;25.99;42.21;100551.46;104090;1287;69372;-90
2023/09/01 04:14:55;;;;;;;13.20;6.40;;;;;;;25.92;42.53;100556.17;104078;1288;70083;-85
2023/09/01 04:17:20;;;;;;;9.30;6.10;;;;;;;25.89;42.37;100558.25;104035;1288;69742;-85
2023/09/01 04:19:47;;;;;;;10.30;6.60;;;;;;;25.85;42.60;100561.52;104113;1288;67788;-85
2023/09/01 04:22:12;;;;;;;10.10;6.50;;;;;;;25.78;42.52;100564.95;104169;1286;69151;-86
2023/09/01 04:24:38;;;;;;;13.40;6.60;;;;;;;25.72;42.85;100565.11;104170;1286;69135;-86
2023/09/01 04:27:03;;;;;;;9.90;6.00;;;;;;;25.71;42.94;100568.50;104199;1291;69206;-86
2023/09/01 04:29:29;;;;;;;12.50;5.70;;;;;;;25.75;43.29;100574.19;104261;1286;69632;-86
2023/09/01 04:31:54;;;;;;;12.70;6.50;;;;;;;25.82;43.04;100575.13;104306;1287;69227;-86
2023/09/01 04:34:20;;;;;;;11.70;6.60;;;;;;;25.89;43.02;100575.98;104303;1288;69258;-86
2023/09/01 04:36:48;;;;;;;10.20;6.10;;;;;;;25.97;42.80;100583.32;104268;1288;69270;-86
2023/09/01 04:39:18;;;;;;;11.60;6.10;;;;;;;26.04;42.90;100584.20;104206;1286;69131;-91
2023/09/01 04:41:43;;;;;;;8.60;5.40;;;;;;;26.09;42.97;100584.25;104281;1286;74234;-86
2023/09/01 04:44:09;;;;;;;9.40;5.70;;;;;;;26.16;42.91;100585.79;104280;1286;69320;-86
2023/09/01 04:46:34;;;;;;;10.20;6.20;;;;;;;26.21;42.80;100588.33;104266;1286;69338;-86
2023/09/01 04:49:00;;;;;;;13.90;6.40;;;;;;;26.23;42.44;100589.91;104164;1291;69185;-86
2023/09/01 04:51:25;;;;;;;11.30;6.90;;;;;;;26.21;42.46;100593.59;104280;1286;69206;-86
2023/09/01 04:53:51;;;;;;;10.60;6.70;;;;;;;26.19;42.54;100594.31;104080;1286;69186;-86
2023/09/01 04:56:16;;;;;;;11.30;7.30;;;;;;;26.16;42.32;100597.71;104290;1288;69257;-86
2023/09/01 04:58:42;;;;;;;11.30;6.60;;;;;;;26.13;42.38;100600.95;104295;1289;69343;-85
2023/09/01 05:01:07;;;;;;;13.00;6.70;;;;;;;26.11;42.26;100602.44;104159;1286;70038;-85
2023/09/01 05:03:33;;;;;;;11.00;6.20;;;;;;;26.10;42.33;100605.03;104196;1286;69252;-85
2023/09/01 05:06:01;;;;;;;15.40;5.70;;;;;;;26.07;42.17;100606.21;104089;1286;69125;-90
2023/09/01 05:08:28;;;;;;;11.50;6.00;;;;;;;26.05;41.97;100609.40;104141;1286;69235;-85
2023/09/01 05:10:53;;;;;;;9.70;5.40;;;;;;;26.03;41.87;100610.31;104210;1286;69269;-85
2023/09/01 05:13:19;;;;;;;8.50;5.30;;;;;;;26.02;41.84;100611.47;104333;1291;69247;-85
2023/09/01 05:15:46;;;;;;;16.40;5.80;;;;;;;26.00;41.60;100612.95;104205;1286;70483;-86
2023/09/01 05:18:12;;;;;;;11.10;5.40;;;;;;;25.98;41.54;100615.30;104364;1288;69215;-86
2023/09/01 05:20:37;;;;;;;14.40;5.60;;;;;;;25.97;41.66;100615.79;104317;1286;69795;-86
2023/09/01 05:23:03;;;;;;;15.50;5.40;;;;;;;25.97;41.51;100619.09;104458;1286;69144;-86
2023/09/01 05:25:28;;;;;;;11.90;5.50;;;;;;;25.98;41.47;100619.27;104325;1285;69163;-86
2023/09/01 05:27:55;;;;;;;10.80;6.20;;;;;;;25.99;41.30;100622.09;104211;1285;69320;-86
2023/09/01 05:30:20;;;;;;;15.80;6.40;;;;;;;25.98;41.18;100621.29;104658;1286;69340;-86
2023/09/01 05:32:46;;;;;;;13.90;6.40;;;;;;;25.96;41.25;100624.89;104434;1285;67634;-86
2023/09/01 05:35:11;;;;;;;19.20;6.70;;;;;;;25.93;41.21;100631.95;104235;1285;69255;-86
2023/09/01 05:37:37;;;;;;;11.60;6.30;;;;;;;25.91;41.26;100632.75;104330;1286;69165;-86
2023/09/01 05:40:03;;;;;;;18.40;6.80;;;;;;;25.91;41.36;100635.43;104335;1285;69267;-86
2023/09/01 05:42:29;;;;;;;16.50;6.60;;;;;;;25.91;41.25;100634.87;104380;1285;70322;-85
2023/09/01 05:45:04;;;;;;;15.30;7.00;;;;;;;25.91;41.21;100636.88;104380;1285;69166;-91
2023/09/01 05:47:29;;;;;;;14.40;6.50;;;;;;;25.91;41.34;100636.35;104588;1285;69096;-86
2023/09/01 05:49:55;;;;;;;16.30;6.30;;;;;;;25.91;41.36;100633.27;104393;1291;69190;-86
2023/09/01 05:52:20;;;;;;;20.10;6.60;;;;;;;25.90;41.36;100636.73;104446;1285;69131;-86
2023/09/01 05:54:49;;;;;;;16.40;7.20;;;;;;;25.90;41.42;100637.86;104931;1289;69185;-86
2023/09/01 05:57:14;;;;;;;15.80;6.70;;;;;;;25.91;41.24;100642.39;105669;1288;69231;-86
2023/09/01 05:59:40;;;;;;;14.50;6.90;;;;;;;25.92;41.37;100642.06;105622;1285;69262;-86
2023/09/01 06:02:06;;;;;;;19.60;6.40;;;;;;;25.94;41.25;100650.39;104185;1285;69211;-86
2023/09/01 06:04:31;;;;;;;10.60;5.80;;;;;;;25.92;41.12;100646.60;104797;1285;69207;-86
2023/09/01 06:06:57;;;;;;;8.60;5.20;;;;;;;25.89;41.09;100650.88;104896;1285;69271;-86
2023/09/01 06:09:22;;;;;;;14.80;5.60;;;;;;;25.89;41.10;100653.86;104526;1285;69276;-86
2023/09/01 06:14:28;;;;;;;7.30;5.20;;;;;;;25.94;40.98;100657.89;104348;1289;68483;-86
2023/09/01 06:16:53;;;;;;;8.20;4.80;;;;;;;25.97;41.23;100659.24;104238;1292;69251;-85
2023/09/01 06:19:19;;;;;;;10.80;4.90;;;;;;;25.99;40.96;100656.99;104230;1291;69291;-87
2023/09/01 06:21:44;;;;;;;9.10;4.60;;;;;;;26.01;40.84;100657.98;104310;1291;69257;-85
2023/09/01 06:24:10;;;;;;;9.70;5.10;;;;;;;25.99;40.84;100658.59;104226;1291;69213;-86
2023/09/01 06:26:35;;;;;;;10.00;4.50;;;;;;;25.97;40.70;100653.07;104205;1290;69264;-85
2023/09/01 06:29:01;;;;;;;5.20;3.90;;;;;;;25.95;40.43;100656.91;103986;1291;69305;-85
2023/09/01 06:31:26;;;;;;;7.70;4.40;;;;;;;25.98;40.47;100658.98;104132;1291;69667;-85
2023/09/01 06:33:52;;;;;;;5.60;3.90;;;;;;;26.01;40.53;100660.16;104158;1291;69334;-85
2023/09/01 06:36:19;;;;;;;9.10;4.10;;;;;;;26.02;40.50;100660.02;104151;1291;69118;-85
2023/09/01 06:38:52;;;;;;;7.30;3.90;;;;;;;26.04;40.29;100661.08;103989;1291;74927;-91
2023/09/01 06:41:18;;;;;;;6.40;3.80;;;;;;;26.06;40.17;100663.27;103866;1291;69083;-85
2023/09/01 06:43:43;;;;;;;7.00;4.30;;;;;;;26.06;40.10;100661.71;103968;1291;69235;-85
2023/09/01 06:46:09;;;;;;;6.90;4.00;;;;;;;26.06;40.09;100661.30;103999;1293;69659;-84
2023/09/01 06:48:35;;;;;;;7.10;4.00;;;;;;;26.08;39.93;100663.06;104120;1291;67231;-84
2023/09/01 06:51:03;;;;;;;9.50;4.00;;;;;;;26.10;40.03;100665.26;104201;1294;69119;-83
2023/09/01 06:53:28;;;;;;;8.90;4.00;;;;;;;26.14;40.07;100663.66;104238;1291;69120;-83
2023/09/01 06:55:54;;;;;;;11.60;3.80;;;;;;;26.16;39.92;100666.05;104162;1291;67814;-84
2023/09/01 06:58:19;;;;;;;7.30;3.90;;;;;;;26.17;39.85;100664.78;104024;1291;69237;-85
2023/09/01 07:00:45;;;;;;;9.30;3.60;;;;;;;26.20;39.94;100669.02;103959;1291;69302;-84
2023/09/01 07:03:10;;;;;;;9.70;3.80;;;;;;;26.23;39.81;100674.44;103972;1290;69351;-84
2023/09/01 07:05:36;;;;;;;6.10;3.40;;;;;;;26.24;39.51;100676.77;104027;1289;69253;-89
2023/09/01 07:08:02;;;;;;;6.90;3.80;;;;;;;26.25;39.47;100676.59;103966;1296;69324;-84
2023/09/01 07:10:28;;;;;;;7.00;3.90;;;;;;;26.28;39.38;100677.22;104103;1291;69260;-84
2023/09/01 07:12:53;;;;;;;8.60;3.80;;;;;;;26.29;39.48;100677.72;103844;1291;69122;-84
2023/09/01 07:15:19;;;;;;;5.00;3.30;;;;;;;26.30;39.29;100687.70;104079;1291;69594;-85
2023/09/01 07:17:44;;;;;;;8.70;3.30;;;;;;;26.32;39.29;100688.40;103853;1291;69915;-86
2023/09/01 07:20:10;;;;;;;4.60;3.40;;;;;;;26.33;39.18;100693.48;103861;1291;69453;-85
2023/09/01 07:22:36;;;;;;;9.50;3.40;;;;;;;26.33;39.12;100692.86;104046;1294;69268;-85
2023/09/01 07:25:03;;;;;;;6.80;3.50;;;;;;;26.34;38.72;100701.30;104326;1289;69217;-85
2023/09/01 07:27:28;;;;;;;8.20;3.30;;;;;;;26.35;38.89;100700.19;103920;1291;69197;-85
2023/09/01 07:29:54;;;;;;;5.90;3.50;;;;;;;26.38;38.85;100700.90;104151;1296;69159;-85
2023/09/01 07:32:19;;;;;;;7.80;4.30;;;;;;;26.39;38.69;100704.55;103918;1289;69335;-85
2023/09/01 07:34:48;;;;;;;4.50;3.50;;;;;;;26.40;38.75;100705.63;103926;1291;69291;-82
2023/09/01 07:37:13;;;;;;;8.90;3.30;;;;;;;26.40;38.63;100708.77;103967;1291;69211;-82
2023/09/01 07:39:39;;;;;;;4.60;3.40;;;;;;;26.41;38.42;100708.81;103957;1290;69146;-83
2023/09/01 07:42:05;;;;;;;5.10;3.70;;;;;;;26.40;38.37;100711.49;104140;1291;69262;-83
2023/09/01 07:44:38;;;;;;;5.30;3.60;;;;;;;26.40;38.49;100711.30;103981;1289;68951;-92
2023/09/01 07:47:04;;;;;;;7.40;4.20;;;;;;;26.40;38.49;100711.80;104057;1291;69006;-86
2023/09/01 07:49:30;;;;;;;4.60;3.90;;;;;;;26.41;38.62;100712.88;104008;1295;69340;-86
2023/09/01 07:51:55;;;;;;;7.50;4.10;;;;;;;26.44;38.36;100716.91;104001;1291;70013;-86
2023/09/01 07:54:20;;;;;;;6.20;3.80;;;;;;;26.44;38.51;100716.91;104143;1297;71682;-86
2023/09/01 07:56:46;;;;;;;7.70;3.90;;;;;;;26.43;38.67;100719.70;103832;1296;69219;-87
2023/09/01 07:59:12;;;;;;;8.10;4.00;;;;;;;26.43;38.48;100716.87;103917;1291;69356;-86
2023/09/01 08:01:37;;;;;;;4.90;3.60;;;;;;;26.44;38.42;100717.38;104009;1293;66569;-88
2023/09/01 08:04:03;;;;;;;5.80;3.60;;;;;;;26.44;38.43;100717.98;104205;1291;69265;-87
2023/09/01 08:06:31;;;;;;;7.20;3.50;;;;;;;26.44;38.50;100716.44;104436;1291;69271;-87
2023/09/01 08:08:57;;;;;;;4.20;3.70;;;;;;;26.45;38.59;100716.93;104821;1291;69269;-84
2023/09/01 08:11:31;;;;;;;4.00;3.40;;;;;;;26.47;38.67;100720.27;104093;1291;67792;-90
2023/09/01 08:13:56;;;;;;;5.10;3.50;;;;;;;26.48;38.73;100718.38;104024;1290;69110;-84
2023/09/01 08:16:22;;;;;;;5.70;3.60;;;;;;;26.49;38.27;100724.14;103975;1290;69219;-83
2023/09/01 08:18:48;;;;;;;7.00;3.40;;;;;;;26.50;38.51;100722.26;103874;1293;67322;-82
2023/09/01 08:21:13;;;;;;;7.00;3.40;;;;;;;26.51;38.74;100718.27;103847;1295;69224;-83
2023/09/01 08:23:40;;;;;;;5.70;3.60;;;;;;;26.54;38.66;100718.88;103854;1290;69279;-82
2023/09/01 08:26:06;;;;;;;4.80;3.60;;;;;;;26.55;38.71;100722.94;103953;1296;74317;-82
2023/09/01 08:28:31;;;;;;;6.50;3.90;;;;;;;26.56;38.55;100725.18;103862;1293;69208;-82
2023/09/01 08:31:06;;;;;;;8.80;3.90;;;;;;;26.58;38.51;100727.79;103850;1290;69282;-82
2023/09/01 08:33:32;;;;;;;8.50;4.00;;;;;;;26.59;38.48;100726.48;103762;1290;69156;-82
2023/09/01 08:36:03;;;;;;;5.90;3.80;;;;;;;26.60;38.34;100730.69;103750;1294;69344;-82
2023/09/01 08:38:29;;;;;;;9.50;4.30;;;;;;;26.62;38.51;100729.05;103880;1293;74743;-83
2023/09/01 08:41:04;;;;;;;4.40;3.90;;;;;;;26.63;38.36;100728.92;103761;1290;69267;-84
2023/09/01 08:43:32;;;;;;;5.10;3.90;;;;;;;26.64;38.27;100725.30;103732;1293;69368;-84
2023/09/01 08:45:58;;;;;;;6.10;3.70;;;;;;;26.65;38.37;100727.46;103929;1290;69286;-86
2023/09/01 08:48:23;;;;;;;7.10;3.60;;;;;;;26.67;38.43;100724.14;103868;1291;69318;-88
2023/09/01 08:50:49;;;;;;;9.40;4.30;;;;;;;26.68;38.31;100718.70;103819;1291;69347;-87
2023/09/01 08:53:23;;;;;;;8.80;3.60;;;;;;;26.69;38.26;100720.75;103742;1293;69297;-93
2023/09/01 08:55:49;;;;;;;11.20;4.10;;;;;;;26.71;38.23;100726.35;104115;1291;69147;-88
2023/09/01 08:58:17;;;;;;;8.10;4.10;;;;;;;26.73;38.32;100725.21;103888;1298;69334;-88
2023/09/01 09:00:44;;;;;;;9.80;4.30;;;;;;;26.74;38.47;100728.04;103856;1290;69120;-86
2023/09/01 09:03:12;;;;;;;10.00;4.70;;;;;;;26.75;38.59;100727.75;103969;1290;67157;-87
2023/09/01 09:05:38;;;;;;;10.30;4.50;;;;;;;26.77;38.64;100729.17;103839;1295;66676;-87
2023/09/01 09:10:48;;;;;;;8.40;4.50;;;;;;;26.78;38.59;100722.37;104556;1288;69087;-86
2023/09/01 09:13:29;;;;;;;11.70;4.90;;;;;;;26.78;38.70;100727.11;104684;1292;69119;-86
2023/09/01 09:16:21;;;;;;;8.60;4.60;;;;;;;26.79;38.63;100732.73;104298;1288;73649;-86
2023/09/01 09:18:47;;;;;;;6.80;3.90;;;;;;;26.79;38.39;100734.02;104276;1287;69209;-86
2023/09/01 09:21:24;;;;;;;8.60;4.10;;;;;;;26.80;38.34;100737.79;104411;1287;69221;-87
2023/09/01 09:23:50;;;;;;;6.80;4.00;;;;;;;26.81;38.32;100739.52;104524;1288;69289;-87
2023/09/01 09:26:15;;;;;;;5.60;3.70;;;;;;;26.82;38.22;100739.23;105158;1288;69285;-89
2023/09/01 09:28:41;;;;;;;6.40;4.30;;;;;;;26.84;37.98;100741.95;104512;1288;69181;-85
2023/09/01 09:31:06;;;;;;;12.80;6.00;;;;;;;26.85;37.83;100739.50;105125;1293;69321;-86
2023/09/01 09:33:33;;;;;;;10.60;5.70;;;;;;;26.86;37.84;100740.71;104423;1288;70471;-85
2023/09/01 09:36:00;;;;;;;7.10;5.40;;;;;;;26.88;37.83;100739.45;104188;1288;69120;-86
2023/09/01 09:38:46;;;;;;;6.70;4.30;;;;;;;26.90;37.84;100741.11;103962;1288;69228;-86
2023/09/01 09:41:13;;;;;;;6.50;4.40;;;;;;;26.91;37.83;100742.12;104246;1289;69245;-87
2023/09/01 09:43:49;;;;;;;5.10;4.30;;;;;;;26.92;37.91;100740.61;103959;1290;69180;-85
2023/09/01 09:46:15;;;;;;;6.30;4.20;;;;;;;26.93;37.85;100735.89;104197;1288;69347;-85
2023/09/01 09:48:40;;;;;;;7.70;4.40;;;;;;;26.95;37.82;100731.19;104083;1289;69157;-85
2023/09/01 09:51:07;;;;;;;9.80;4.40;;;;;;;26.97;37.77;100731.45;104056;1294;69320;-85
2023/09/01 09:53:34;;;;;;;8.40;4.10;;;;;;;26.98;37.85;100729.16;104169;1291;69285;-86
2023/09/01 09:58:40;;;;;;;8.60;4.00;;;;;;;26.96;37.53;100741.49;104100;1292;69208;-85
2023/09/01 10:01:10;;;;;;;5.90;4.30;;;;;;;26.96;37.66;100741.23;104034;1289;69228;-85
2023/09/01 10:03:35;;;;;;;5.90;4.10;;;;;;;26.94;37.71;100739.63;103997;1291;74614;-85
2023/09/01 10:06:01;;;;;;;6.00;4.10;;;;;;;26.92;37.62;100738.64;103831;1290;69336;-85
2023/09/01 10:08:26;;;;;;;5.00;4.00;;;;;;;26.90;37.59;100736.88;103998;1303;69132;-85
2023/09/01 10:13:32;;;;;;;6.30;4.30;;;;;;;26.90;37.49;100740.70;104167;1290;69125;-85
2023/09/01 10:15:57;;;;;;;7.00;4.00;;;;;;;26.91;37.37;100736.17;104245;1287;69346;-85
2023/09/01 10:18:23;;;;;;;4.60;3.80;;;;;;;26.94;37.23;100732.04;104089;1293;69591;-85
2023/09/01 10:20:48;;;;;;;6.40;3.90;;;;;;;26.96;37.38;100731.99;104117;1294;69209;-85
2023/09/01 10:23:14;;;;;;;8.30;4.00;;;;;;;26.98;37.36;100733.59;104206;1292;69267;-86
2023/09/01 10:25:39;;;;;;;7.20;4.10;;;;;;;26.99;37.25;100734.03;104006;1288;69350;-85
2023/09/01 10:28:05;;;;;;;4.30;3.80;;;;;;;27.00;37.30;100737.42;103805;1292;69196;-85
2023/09/01 10:30:32;;;;;;;9.30;4.00;;;;;;;27.03;37.35;100739.91;103956;1293;69310;-86
2023/09/01 10:33:30;;;;;;;8.50;3.80;;;;;;;27.04;37.32;100733.59;103930;1291;69254;-86
2023/09/01 10:35:59;;;;;;;6.50;3.40;;;;;;;27.03;37.07;100731.58;103655;1290;69135;-86
2023/09/01 10:38:34;;;;;;;6.00;3.50;;;;;;;27.05;36.97;100734.07;103945;1292;74276;-85
2023/09/01 10:40:59;;;;;;;4.80;3.80;;;;;;;27.07;37.14;100741.67;103947;1290;69206;-86
2023/09/01 10:43:51;;;;;;;4.90;4.00;;;;;;;27.10;37.06;100741.55;103835;1293;69262;-85
2023/09/01 10:46:17;;;;;;;5.90;3.70;;;;;;;27.12;36.95;100748.02;103724;1290;69205;-85
2023/09/01 10:48:58;;;;;;;8.90;3.80;;;;;;;27.14;36.72;100746.69;103953;1291;69189;-85
2023/09/01 10:51:26;;;;;;;7.70;4.30;;;;;;;27.14;36.85;100748.30;103911;1292;73557;-85
2023/09/01 10:53:52;;;;;;;6.10;3.70;;;;;;;27.15;36.85;100746.48;104383;1294;68968;-85
2023/09/01 10:56:19;;;;;;;7.40;3.80;;;;;;;27.18;36.69;100746.73;103886;1291;69236;-86
2023/09/01 10:58:49;;;;;;;8.00;3.80;;;;;;;27.19;36.60;100740.14;103976;1290;68925;-88
2023/09/01 11:01:33;;;;;;;;;;;;;;;27.19;36.62;100735.79;104082;1291;69274;-86
2023/09/01 11:04:14;;;;;;;6.10;4.10;;;;;;;27.18;36.76;100731.58;103864;1290;74361;-86
2023/09/01 11:06:58;;;;;;;9.50;4.30;;;;;;;27.19;36.79;100730.67;103856;1293;70436;-85
2023/09/01 11:09:43;;;;;;;4.50;4.00;;;;;;;27.22;36.74;100735.16;103947;1293;70510;-86
2023/09/01 11:12:12;;;;;;;8.10;4.20;;;;;;;27.23;36.69;100731.67;104008;1288;69410;-86
2023/09/01 11:14:39;;;;;;;4.30;3.80;;;;;;;27.24;36.64;100729.02;104118;1292;67762;-86
2023/09/01 11:17:04;;;;;;;5.50;4.20;;;;;;;27.23;36.59;100725.67;104108;1291;74747;-86
2023/09/01 11:19:33;;;;;;;5.70;4.20;;;;;;;27.22;36.44;100722.55;103839;1288;69311;-86
2023/09/01 11:21:59;;;;;;;6.60;4.40;;;;;;;27.21;36.45;100718.61;103930;1288;69267;-86
2023/09/01 11:24:24;;;;;;;10.00;4.00;;;;;;;27.21;36.43;100714.25;104035;1291;69679;-86
2023/09/01 11:26:50;;;;;;;7.80;4.10;;;;;;;27.22;36.37;100715.58;104067;1288;69255;-86
2023/09/01 11:29:19;;;;;;;5.50;4.10;;;;;;;27.23;36.29;100711.77;103947;1293;69385;-86